Impacts METAR Board
IDs:

KLAS - Las Vegas/McCarran I, NV, US

Updated at: 2000 UTC 19 May 2019
Potential Impact None Slight Moderate High
Time 19/08Z 19/09Z 19/10Z 19/11Z 19/12Z 19/13Z 19/14Z 19/15Z 19/16Z 19/17Z 19/18Z 19/19Z 19/20Z
Temp67 65 64 63 62 60 59 61 64 66 67 70 71
Dewpt40 43 42 42 41 42 42 40 39 37 36 33 31
Altim29.70 29.68 29.63 29.63 29.65 29.65 29.64 29.66 29.64 29.66 29.64 29.66 29.63
VIS10 10 10 10 10 10 10 10 10 10 10 10 10
CIG95 95 120 120 140 110 110 150 150 160 160 -- --
CoverBKNOVCOVCOVCBKNBKNBKNBKNBKNBKNBKNSCTSCT
FltCatVFRVFRVFRVFRVFRVFRVFRVFRVFRVFRVFRVFRVFR
WX--------------------------
WDir220200220220230220200190190210210240220
WSpd18 12 22 22 15 20 14 15 11 17 16 16 23
WGst29 22 35 33 24 33 28 22 22 29 33 26 30
Raw hourly METARs
KLAS 190756Z 22018G29KT 10SM BKN095 BKN120 BKN200 19/04 A2970 RMK AO2 PK WND 23029/0719 SLP037 T01940044 402720144 $
KLAS 190856Z 20012G22KT 10SM FEW070 BKN095 BKN120 OVC200 18/06 A2968 RMK AO2 PK WND 21034/0827 SLP031 T01830061 58008 $
KLAS 190956Z 22022G35KT 10SM FEW070 SCT095 BKN120 OVC200 18/06 A2963 RMK AO2 PK WND 23035/0952 SLP013 T01780056 $
KLAS 191056Z 22022G33KT 10SM FEW070 FEW100 BKN120 OVC200 17/06 A2963 RMK AO2 PK WND 21038/0957 SLP015 T01720056 $
KLAS 191156Z 23015G24KT 10SM FEW100 BKN140 17/05 A2965 RMK AO2 PK WND 22036/1122 SLP022 T01670050 10222 20167 55008 $
KLAS 191256Z 22020G33KT 10SM FEW070 SCT095 BKN110 16/06 A2965 RMK AO2 PK WND 23033/1253 SLP023 T01560056 $
KLAS 191356Z 20014G28KT 10SM FEW070 SCT095 BKN110 15/06 A2964 RMK AO2 PK WND 22028/1349 SLP021 SH DSNT E-S T01500056 $
KLAS 191456Z 19015G22KT 10SM FEW070 SCT110 BKN150 16/04 A2966 RMK AO2 PK WND 19027/1444 SLP025 T01610044 53001 $
KLAS 191556Z 19011G22KT 10SM FEW070 SCT120 BKN150 18/04 A2964 RMK AO2 PK WND 21026/1504 SLP019 T01780039 $
KLAS 191656Z 21017G29KT 10SM FEW070 FEW120 BKN160 BKN200 19/03 A2966 RMK AO2 PK WND 23029/1651 SLP025 T01890028 $
KLAS 191756Z 21016G33KT 10SM FEW100 FEW120 BKN160 BKN200 19/02 A2964 RMK AO2 PK WND 20033/1741 SLP018 T01940022 10194 20150 58006 $
KLAS 191856Z 24016G26KT 10SM FEW080 FEW100 SCT160 21/01 A2966 RMK AO2 PK WND 21036/1809 SLP024 T02110006 $
KLAS 191956Z 22023G30KT 10SM FEW080 FEW100 SCT160 22/M01 A2963 RMK AO2 PK WND 22031/1941 SLP017 T02171006 $



Page loaded:  20:18 UTC  |   01:18 PM Pacific  |   02:18 PM Mountain  |   03:18 PM Central  |   04:18 PM Eastern

 

ADVISORIES

FORECASTS

FORECASTS

OBSERVATIONS

USER TOOLS

ABOUT US